createdAt,value
2018-04-14T00:01:37.439Z,13.60
2018-04-14T00:02:37.009Z,13.58
2018-04-14T00:04:35.489Z,13.51
2018-04-14T00:05:35.100Z,13.54
2018-04-14T00:07:33.543Z,13.45
2018-04-14T00:08:33.599Z,13.32
2018-04-14T00:10:30.960Z,13.20
2018-04-14T00:11:30.963Z,13.11
2018-04-14T00:13:27.925Z,13.07
2018-04-14T00:14:27.425Z,13.10
2018-04-14T00:16:24.881Z,13.06
2018-04-14T00:17:24.859Z,13.03
2018-04-14T00:19:22.842Z,12.95
2018-04-14T00:20:23.301Z,12.92
2018-04-14T00:22:19.715Z,12.96
2018-04-14T00:23:18.697Z,12.92
2018-04-14T00:25:18.667Z,12.99
2018-04-14T00:26:16.771Z,12.88
2018-04-14T00:28:14.751Z,12.89
2018-04-14T00:29:14.727Z,12.91
2018-04-14T00:31:14.179Z,12.80
2018-04-14T00:32:14.179Z,12.71
2018-04-14T00:34:10.641Z,12.69
2018-04-14T00:35:11.150Z,12.70
2018-04-14T00:37:09.091Z,12.61
2018-04-14T00:38:09.070Z,12.55
2018-04-14T00:40:06.569Z,12.56
2018-04-14T00:41:07.023Z,12.52
2018-04-14T00:43:04.991Z,12.52
2018-04-14T00:44:04.566Z,12.45
2018-04-14T00:46:03.033Z,12.45
2018-04-14T00:47:02.511Z,12.43
2018-04-14T00:49:01.968Z,12.37
2018-04-14T00:50:00.968Z,12.43
2018-04-14T00:51:58.879Z,12.34
2018-04-14T00:52:58.456Z,12.31
2018-04-14T00:54:56.430Z,12.28
2018-04-14T00:55:56.393Z,12.25
2018-04-14T00:57:54.862Z,12.20
2018-04-14T00:58:54.336Z,12.23
2018-04-14T01:00:53.821Z,12.20
2018-04-14T01:01:53.349Z,12.15
2018-04-14T01:03:50.348Z,12.25
2018-04-14T01:04:50.340Z,12.20
2018-04-14T01:06:48.354Z,12.23
2018-04-14T01:07:48.802Z,12.20
2018-04-14T01:09:46.776Z,12.23
2018-04-14T01:10:46.221Z,12.25
2018-04-14T01:12:44.215Z,12.25
2018-04-14T01:13:44.687Z,12.18
2018-04-14T01:15:42.113Z,12.19
2018-04-14T01:16:42.618Z,12.10
2018-04-14T01:18:40.591Z,12.20
2018-04-14T01:19:40.024Z,12.20
2018-04-14T01:21:39.964Z,12.13
2018-04-14T01:22:38.092Z,12.08
2018-04-14T01:24:36.024Z,11.97
2018-04-14T01:25:34.045Z,12.03
2018-04-14T01:27:33.474Z,11.91
2018-04-14T01:28:31.974Z,12.00
2018-04-14T01:30:30.429Z,12.03
2018-04-14T01:31:30.948Z,11.91
2018-04-14T01:33:28.056Z,11.98
2018-04-14T01:34:28.046Z,12.03
2018-04-14T01:36:26.143Z,12.04
2018-04-14T01:37:26.162Z,12.19
2018-04-14T01:39:24.593Z,12.08
2018-04-14T01:40:24.020Z,12.00
2018-04-14T01:42:22.028Z,11.86
2018-04-14T01:43:21.972Z,11.82
2018-04-14T01:45:20.470Z,11.89
2018-04-14T01:46:20.032Z,11.85
2018-04-14T01:48:16.496Z,11.76
2018-04-14T01:49:16.514Z,11.81
2018-04-14T01:51:15.451Z,11.85
2018-04-14T01:52:14.041Z,11.86
2018-04-14T01:54:12.548Z,11.88
2018-04-14T01:55:12.014Z,11.79
2018-04-14T01:57:09.952Z,11.81
2018-04-14T01:58:09.009Z,11.73
2018-04-14T02:00:03.943Z,11.75
2018-04-14T02:01:04.471Z,11.75
2018-04-14T02:03:00.851Z,11.66
2018-04-14T02:04:01.353Z,11.67
2018-04-14T02:05:56.304Z,11.63
2018-04-14T02:06:57.285Z,11.68
2018-04-14T02:08:54.246Z,11.51
2018-04-14T02:09:53.805Z,11.63
2018-04-14T02:11:52.262Z,11.53
2018-04-14T02:12:51.779Z,11.53
2018-04-14T02:14:49.706Z,11.41
2018-04-14T02:15:50.192Z,11.39
2018-04-14T02:17:47.647Z,11.43
2018-04-14T02:18:47.629Z,11.34
2018-04-14T02:20:48.110Z,11.39
2018-04-14T02:21:45.685Z,11.42
2018-04-14T02:23:44.161Z,11.46
2018-04-14T02:24:43.628Z,11.45
2018-04-14T02:26:40.617Z,11.39
2018-04-14T02:27:39.614Z,11.42
2018-04-14T02:29:36.091Z,11.42
2018-04-14T02:30:35.521Z,11.43
2018-04-14T02:32:33.492Z,11.31
2018-04-14T02:33:33.467Z,11.28
2018-04-14T02:35:32.440Z,11.27
2018-04-14T02:36:31.419Z,11.31
2018-04-14T02:38:29.409Z,11.24
2018-04-14T02:39:29.374Z,11.24
2018-04-14T02:41:27.834Z,11.18
2018-04-14T02:42:27.822Z,11.12
2018-04-14T02:44:25.779Z,11.16
2018-04-14T02:45:25.255Z,11.16
2018-04-14T02:47:23.227Z,11.23
2018-04-14T02:48:23.213Z,11.13
2018-04-14T02:50:23.667Z,11.06
2018-04-14T02:51:24.156Z,11.00
2018-04-14T02:53:23.581Z,11.02
2018-04-14T02:54:21.691Z,11.00
2018-04-14T02:56:20.658Z,11.00
2018-04-14T02:57:20.152Z,10.98
2018-04-14T02:59:16.606Z,11.02
2018-04-14T03:00:15.609Z,11.03
2018-04-14T03:02:11.521Z,11.02
2018-04-14T03:03:12.442Z,10.91
2018-04-14T03:05:09.518Z,10.94
2018-04-14T03:06:09.965Z,10.92
2018-04-14T03:08:08.920Z,10.98
2018-04-14T03:09:07.927Z,10.92
2018-04-14T03:11:05.338Z,10.79
2018-04-14T03:12:05.334Z,10.79
2018-04-14T03:14:03.822Z,10.67
2018-04-14T03:15:03.425Z,10.63
2018-04-14T03:17:01.883Z,10.58
2018-04-14T03:18:01.505Z,10.47
2018-04-14T03:20:00.435Z,10.63
2018-04-14T03:21:00.941Z,10.58
2018-04-14T03:22:55.364Z,10.58
2018-04-14T03:23:56.801Z,10.69
2018-04-14T03:25:53.324Z,10.58
2018-04-14T03:26:52.332Z,10.55
2018-04-14T03:28:48.810Z,10.65
2018-04-14T03:29:47.797Z,10.51
2018-04-14T03:31:43.205Z,10.61
2018-04-14T03:32:44.206Z,10.52
2018-04-14T03:34:41.212Z,10.39
2018-04-14T03:35:41.139Z,10.35
2018-04-14T03:37:39.615Z,10.26
2018-04-14T03:38:39.110Z,10.20
2018-04-14T03:40:37.563Z,10.33
2018-04-14T03:41:37.034Z,10.36
2018-04-14T03:43:33.006Z,10.36
2018-04-14T03:44:32.982Z,10.38
2018-04-14T03:46:30.924Z,10.38
2018-04-14T03:47:30.931Z,10.26
2018-04-14T03:49:30.870Z,10.26
2018-04-14T03:50:28.939Z,10.26
2018-04-14T03:52:28.402Z,10.21
2018-04-14T03:53:27.893Z,10.18
2018-04-14T03:55:25.353Z,10.05
2018-04-14T03:56:25.352Z,10.05
2018-04-14T03:58:22.871Z,10.10
2018-04-14T03:59:22.795Z,10.11
2018-04-14T04:01:21.259Z,10.14
2018-04-14T04:02:21.739Z,10.25
2018-04-14T04:04:18.711Z,10.14
2018-04-14T04:05:18.702Z,10.20
2018-04-14T04:07:17.634Z,10.20
2018-04-14T04:08:16.741Z,10.23
2018-04-14T04:10:15.706Z,10.21
2018-04-14T04:11:15.210Z,10.25
2018-04-14T04:13:12.758Z,10.29
2018-04-14T04:14:12.775Z,10.29
2018-04-14T04:16:09.216Z,10.28
2018-04-14T04:17:09.205Z,10.33
2018-04-14T04:19:06.581Z,10.28
2018-04-14T04:20:06.591Z,10.23
2018-04-14T04:22:05.029Z,10.20
2018-04-14T04:23:04.517Z,10.18
2018-04-14T04:25:02.481Z,10.21
2018-04-14T04:26:02.464Z,10.17
2018-04-14T04:28:00.923Z,10.17
2018-04-14T04:29:00.397Z,10.20
2018-04-14T04:30:58.390Z,10.21
2018-04-14T04:31:58.352Z,10.18
2018-04-14T04:33:57.291Z,10.28
2018-04-14T04:34:56.278Z,10.28
2018-04-14T04:36:54.141Z,10.36
2018-04-14T04:37:52.721Z,10.32
2018-04-14T04:39:49.162Z,10.44
2018-04-14T04:40:48.187Z,10.44
2018-04-14T04:42:46.600Z,10.47
2018-04-14T04:43:46.250Z,10.42
2018-04-14T04:45:45.712Z,10.63
2018-04-14T04:46:44.309Z,10.52
2018-04-14T04:48:40.238Z,10.57
2018-04-14T04:49:40.765Z,10.52
2018-04-14T04:51:36.222Z,10.59
2018-04-14T04:52:36.145Z,10.57
2018-04-14T04:54:34.161Z,10.65
2018-04-14T04:55:34.087Z,10.59
2018-04-14T04:57:32.535Z,10.69
2018-04-14T04:58:32.045Z,10.65
2018-04-14T05:00:28.981Z,10.65
2018-04-14T05:01:28.019Z,10.61
2018-04-14T05:03:26.916Z,10.63
2018-04-14T05:04:25.891Z,10.69
2018-04-14T05:06:21.848Z,10.61
2018-04-14T05:08:37.815Z,10.70
2018-04-14T05:09:38.291Z,10.58
2018-04-14T05:11:33.683Z,10.55
2018-04-14T05:12:33.696Z,10.65
2018-04-14T05:14:33.069Z,10.66
2018-04-14T05:15:31.652Z,10.63
2018-04-14T05:17:29.623Z,10.73
2018-04-14T05:18:28.103Z,10.77
2018-04-14T05:20:25.561Z,10.83
2018-04-14T05:21:25.537Z,10.90
2018-04-14T05:23:24.998Z,10.98
2018-04-14T05:24:23.473Z,10.88
2018-04-14T05:26:21.461Z,10.91
2018-04-14T05:27:22.922Z,11.02
2018-04-14T05:29:21.363Z,11.09
2018-04-14T05:30:19.453Z,11.03
2018-04-14T05:32:15.373Z,11.15
2018-04-14T05:33:15.378Z,11.12
2018-04-14T05:35:13.840Z,11.10
2018-04-14T05:36:13.540Z,11.10
2018-04-14T05:38:12.009Z,11.21
2018-04-14T05:39:12.488Z,11.27
2018-04-14T05:41:10.067Z,11.27
2018-04-14T05:42:09.718Z,11.38
2018-04-14T05:44:04.147Z,11.41
2018-04-14T05:45:04.136Z,11.35
2018-04-14T05:47:00.060Z,11.46
2018-04-14T05:48:00.565Z,11.56
2018-04-14T05:49:56.052Z,11.67
2018-04-14T05:50:56.031Z,11.67
2018-04-14T05:52:54.969Z,11.78
2018-04-14T05:53:54.959Z,11.88
2018-04-14T05:55:50.051Z,11.91
2018-04-14T05:56:50.575Z,11.85
2018-04-14T05:58:49.402Z,12.04
2018-04-14T05:59:47.968Z,12.18
2018-04-14T06:01:48.377Z,12.18
2018-04-14T06:02:47.381Z,12.25
2018-04-14T06:04:45.322Z,12.25
2018-04-14T06:05:45.837Z,12.29
2018-04-14T06:07:43.441Z,12.47
2018-04-14T06:08:41.860Z,12.34
2018-04-14T06:10:38.817Z,12.53
2018-04-14T06:11:38.744Z,12.59
2018-04-14T06:13:35.762Z,12.80
2018-04-14T06:14:35.759Z,12.77
2018-04-14T06:16:36.209Z,12.94
2018-04-14T06:17:36.720Z,12.88
2018-04-14T06:19:34.271Z,13.02
2018-04-14T06:20:35.158Z,13.10
2018-04-14T06:22:43.716Z,13.21
2018-04-14T06:23:41.235Z,13.20
2018-04-14T06:25:39.159Z,13.37
2018-04-14T06:26:39.701Z,13.37
2018-04-14T06:28:35.091Z,13.44
2018-04-14T06:29:35.090Z,13.55
2018-04-14T06:31:31.055Z,13.63
2018-04-14T06:32:31.033Z,13.69
2018-04-14T06:34:26.959Z,13.81
2018-04-14T06:35:26.964Z,13.83
2018-04-14T06:37:23.921Z,13.83
2018-04-14T06:39:38.917Z,14.02
2018-04-14T06:40:39.366Z,14.03
2018-04-14T06:42:39.295Z,14.08
2018-04-14T06:43:40.839Z,14.06
2018-04-14T06:45:35.262Z,14.08
2018-04-14T06:46:35.294Z,14.02
2018-04-14T06:48:31.273Z,14.05
2018-04-14T06:50:49.709Z,13.97
2018-04-14T06:51:49.192Z,13.91
2018-04-14T06:53:45.175Z,13.69
2018-04-14T06:54:45.651Z,13.68
2018-04-14T06:56:42.130Z,13.75
2018-04-14T06:57:41.132Z,13.84
2018-04-14T06:59:37.602Z,13.86
2018-04-14T07:00:37.597Z,13.91
2018-04-14T07:02:33.022Z,13.93
2018-04-14T07:03:33.509Z,13.93
2018-04-14T07:05:31.411Z,13.86
2018-04-14T07:06:28.968Z,13.86
2018-04-14T07:08:26.858Z,13.95
2018-04-14T07:09:25.404Z,13.90
2018-04-14T07:11:21.403Z,14.02
2018-04-14T07:12:21.360Z,14.03
2018-04-14T07:14:17.725Z,14.06
2018-04-14T07:15:16.790Z,14.13
2018-04-14T07:17:13.751Z,14.20
2018-04-14T07:18:13.757Z,14.28
2018-04-14T07:20:09.208Z,14.31
2018-04-14T07:21:08.708Z,14.33
2018-04-14T07:23:05.182Z,14.28
2018-04-14T07:24:04.642Z,14.27
2018-04-14T07:26:00.612Z,14.36
2018-04-14T07:27:01.593Z,14.45
2018-04-14T07:28:57.084Z,14.45
2018-04-14T07:29:57.082Z,14.48
2018-04-14T07:31:54.970Z,14.60
2018-04-14T07:32:54.488Z,14.66
2018-04-14T07:34:52.931Z,14.75
2018-04-14T07:35:52.554Z,14.77
2018-04-14T07:37:48.511Z,14.86
2018-04-14T07:38:48.511Z,14.90
2018-04-14T07:40:44.483Z,15.01
2018-04-14T07:41:44.456Z,15.04
2018-04-14T07:43:42.930Z,14.98
2018-04-14T07:44:42.402Z,14.95
2018-04-14T07:46:39.363Z,14.97
2018-04-14T07:47:39.363Z,15.07
2018-04-14T07:49:34.284Z,14.95
2018-04-14T07:50:34.284Z,15.00
2018-04-14T07:52:30.229Z,15.08
2018-04-14T07:53:30.753Z,15.07
2018-04-14T07:55:26.212Z,15.08
2018-04-14T07:56:26.173Z,15.12
2018-04-14T07:58:22.126Z,15.10
2018-04-14T07:59:22.125Z,15.15
2018-04-14T08:01:18.074Z,15.15
2018-04-14T08:02:18.064Z,15.13
2018-04-14T08:04:14.041Z,15.12
2018-04-14T08:05:14.049Z,15.19
2018-04-14T08:07:10.987Z,15.18
2018-04-14T08:08:10.485Z,15.19
2018-04-14T08:10:05.950Z,15.33
2018-04-14T08:11:05.942Z,15.34
2018-04-14T08:13:02.409Z,15.43
2018-04-14T08:14:02.403Z,15.45
2018-04-14T08:15:57.854Z,15.49
2018-04-14T08:16:57.832Z,15.47
2018-04-14T08:18:54.792Z,15.59
2018-04-14T08:19:54.303Z,15.59
2018-04-14T08:21:50.714Z,15.74
2018-04-14T08:22:49.703Z,15.80
2018-04-14T08:24:46.209Z,15.95
2018-04-14T08:25:47.155Z,15.89
2018-04-14T08:27:42.155Z,15.92
2018-04-14T08:28:42.117Z,15.80
2018-04-14T08:30:38.063Z,15.71
2018-04-14T08:31:37.658Z,15.75
2018-04-14T08:33:33.626Z,15.78
2018-04-14T08:34:35.110Z,15.73
2018-04-14T08:36:32.566Z,15.78
2018-04-14T08:37:33.572Z,15.81
2018-04-14T08:39:28.137Z,15.96
2018-04-14T08:40:27.595Z,16.02
2018-04-14T08:42:23.572Z,16.02
2018-04-14T08:43:23.542Z,15.99
2018-04-14T08:45:19.739Z,16.25
2018-04-14T08:46:20.008Z,16.32
2018-04-14T08:48:15.969Z,16.37
2018-04-14T08:49:16.948Z,16.37
2018-04-14T08:51:12.894Z,16.47
2018-04-14T08:52:11.378Z,16.45
2018-04-14T08:54:08.762Z,16.57
2018-04-14T08:55:07.326Z,16.52
2018-04-14T08:57:04.284Z,16.44
2018-04-14T08:58:03.807Z,16.48
2018-04-14T08:59:59.258Z,16.52
2018-04-14T09:00:59.239Z,16.47
2018-04-14T09:02:55.700Z,16.36
2018-04-14T09:03:55.196Z,16.22
2018-04-14T09:05:52.672Z,16.30
2018-04-14T09:06:52.596Z,16.27
2018-04-14T09:08:47.076Z,16.34
2018-04-14T09:09:47.072Z,16.37
2018-04-14T09:11:43.531Z,16.44
2018-04-14T09:12:43.020Z,16.39
2018-04-14T09:14:39.969Z,16.49
2018-04-14T09:15:39.894Z,16.57
2018-04-14T09:17:34.952Z,16.66
2018-04-14T09:18:34.927Z,16.73
2018-04-14T09:20:31.887Z,16.91
2018-04-14T09:21:30.882Z,16.94
2018-04-14T09:23:27.335Z,16.92
2018-04-14T09:24:28.341Z,17.09
2018-04-14T09:26:23.823Z,17.10
2018-04-14T09:27:22.783Z,17.10
2018-04-14T09:29:18.762Z,16.91
2018-04-14T09:30:20.249Z,16.90
2018-04-14T09:32:15.165Z,16.91
2018-04-14T09:33:15.187Z,17.05
2018-04-14T09:35:10.630Z,17.17
2018-04-14T09:36:10.602Z,17.12
2018-04-14T09:38:06.545Z,17.12
2018-04-14T09:39:07.068Z,17.07
2018-04-14T09:41:04.522Z,16.94
2018-04-14T09:42:02.538Z,17.02
2018-04-14T09:43:59.987Z,17.09
2018-04-14T09:44:58.480Z,17.13
2018-04-14T09:46:54.463Z,17.21
2018-04-14T09:47:54.948Z,17.22
2018-04-14T09:49:50.364Z,17.36
2018-04-14T09:50:50.886Z,17.49
2018-04-14T09:52:46.347Z,17.60
2018-04-14T09:53:46.328Z,17.65
2018-04-14T09:55:42.793Z,17.66
2018-04-14T09:56:42.280Z,17.65
2018-04-14T09:58:39.274Z,17.83
2018-04-14T09:59:39.196Z,17.87
2018-04-14T10:01:35.167Z,17.96
2018-04-14T10:02:35.171Z,18.03
2018-04-14T10:04:31.113Z,17.94
2018-04-14T10:05:31.128Z,18.11
2018-04-14T10:07:29.081Z,17.98
2018-04-14T10:08:27.094Z,18.05
2018-04-14T10:10:24.090Z,18.01
2018-04-14T10:11:24.063Z,18.03
2018-04-14T10:13:19.047Z,18.03
2018-04-14T10:14:19.051Z,18.02
2018-04-14T10:16:15.077Z,17.94
2018-04-14T10:17:15.524Z,17.92
2018-04-14T10:19:12.474Z,18.20
2018-04-14T10:20:10.932Z,18.29
2018-04-14T10:22:06.922Z,18.44
2018-04-14T10:23:06.883Z,18.44
2018-04-14T10:25:02.829Z,18.38
2018-04-14T10:26:03.344Z,18.44
2018-04-14T10:27:58.822Z,18.56
2018-04-14T10:28:58.806Z,18.65
2018-04-14T10:30:55.766Z,18.71
2018-04-14T10:31:55.260Z,18.76
2018-04-14T10:33:50.744Z,18.86
2018-04-14T10:34:51.245Z,18.97
2018-04-14T10:36:49.237Z,18.97
2018-04-14T10:37:49.689Z,19.02
2018-04-14T10:39:44.653Z,18.93
2018-04-14T10:40:45.635Z,19.09
2018-04-14T10:42:40.593Z,18.96
2018-04-14T10:43:41.122Z,18.76
2018-04-14T10:45:36.566Z,18.63
2018-04-14T10:46:36.551Z,18.61
2018-04-14T10:48:32.535Z,18.39
2018-04-14T10:49:32.546Z,18.45
2018-04-14T10:51:29.001Z,18.39
2018-04-14T10:52:28.490Z,18.42
2018-04-14T10:54:24.963Z,18.38
2018-04-14T10:55:24.956Z,18.31
2018-04-14T10:57:20.388Z,18.13
2018-04-14T10:58:20.402Z,18.21
2018-04-14T11:00:19.875Z,18.21
2018-04-14T11:01:19.376Z,18.24
2018-04-14T11:03:15.453Z,18.34
2018-04-14T11:04:14.952Z,18.45
2018-04-14T11:06:10.943Z,18.39
2018-04-14T11:07:10.414Z,18.32
2018-04-14T11:09:06.884Z,18.39
2018-04-14T11:10:06.869Z,18.45
2018-04-14T11:12:02.343Z,18.39
2018-04-14T11:13:02.321Z,18.38
2018-04-14T11:15:00.800Z,18.42
2018-04-14T11:16:00.322Z,18.38
2018-04-14T11:17:57.273Z,18.44
2018-04-14T11:18:56.258Z,18.47
2018-04-14T11:20:53.230Z,18.41
2018-04-14T11:23:10.211Z,18.49
2018-04-14T11:26:05.195Z,18.78
2018-04-14T11:27:04.208Z,18.79
2018-04-14T11:29:00.182Z,18.78
2018-04-14T11:30:00.671Z,18.78
2018-04-14T11:31:56.074Z,18.78
2018-04-14T11:32:56.100Z,18.81
2018-04-14T11:34:52.565Z,18.74
2018-04-14T11:35:52.046Z,18.72
2018-04-14T11:37:45.503Z,18.78
2018-04-14T11:38:45.992Z,18.78
2018-04-14T11:40:41.447Z,18.82
2018-04-14T11:41:41.464Z,18.93
2018-04-14T11:43:37.431Z,18.78
2018-04-14T11:44:37.423Z,18.71
2018-04-14T11:46:34.399Z,18.76
2018-04-14T11:47:33.386Z,18.86
2018-04-14T11:49:29.312Z,18.99
2018-04-14T11:50:30.274Z,18.91
2018-04-14T11:52:28.795Z,18.97
2018-04-14T11:53:27.411Z,19.16
2018-04-14T11:55:25.372Z,19.17
2018-04-14T11:56:23.393Z,19.12
2018-04-14T11:58:17.854Z,19.23
2018-04-14T11:59:18.350Z,19.17
2018-04-14T12:01:13.788Z,19.40
2018-04-14T12:02:13.813Z,19.42
2018-04-14T12:04:09.775Z,19.43
2018-04-14T12:05:09.773Z,19.35
2018-04-14T12:07:06.264Z,19.37
2018-04-14T12:08:06.230Z,19.34
2018-04-14T12:10:01.739Z,19.24
2018-04-14T12:11:02.190Z,19.16
2018-04-14T12:12:57.651Z,19.17
2018-04-14T12:13:57.669Z,19.20
2018-04-14T12:15:53.593Z,19.35
2018-04-14T12:16:54.608Z,19.49
2018-04-14T12:18:51.064Z,19.74
2018-04-14T12:19:49.532Z,19.68
2018-04-14T12:21:45.498Z,19.83
2018-04-14T12:22:45.516Z,19.97
2018-04-14T12:24:41.484Z,19.83
2018-04-14T12:25:41.475Z,19.90
2018-04-14T12:27:37.449Z,19.89
2018-04-14T12:28:37.949Z,19.92
2018-04-14T12:30:33.412Z,19.93
2018-04-14T12:31:34.405Z,19.95
2018-04-14T12:33:29.874Z,19.75
2018-04-14T12:34:30.304Z,19.65
2018-04-14T12:36:26.349Z,19.71
2018-04-14T12:37:25.361Z,19.65
2018-04-14T12:39:21.332Z,19.72
2018-04-14T12:40:21.834Z,19.83
2018-04-14T12:42:17.277Z,20.05
2018-04-14T12:43:18.273Z,20.07
2018-04-14T12:45:13.276Z,20.07
2018-04-14T12:46:13.729Z,20.04
2018-04-14T12:48:10.184Z,20.05
2018-04-14T12:49:09.183Z,20.07
2018-04-14T12:51:05.153Z,20.10
2018-04-14T12:52:05.166Z,20.15
2018-04-14T12:54:01.118Z,20.08
2018-04-14T12:55:01.142Z,20.00
2018-04-14T12:56:57.106Z,19.93
2018-04-14T12:57:58.091Z,19.93
2018-04-14T12:59:53.556Z,19.97
2018-04-14T13:00:53.556Z,20.04
2018-04-14T13:02:49.019Z,20.05
2018-04-14T13:03:49.020Z,20.07
2018-04-14T13:05:48.972Z,20.08
2018-04-14T13:06:46.997Z,20.08
2018-04-14T13:08:43.453Z,20.23
2018-04-14T13:09:43.427Z,20.30
2018-04-14T13:11:39.386Z,20.30
2018-04-14T13:12:38.916Z,20.35
2018-04-14T13:14:38.382Z,20.42
2018-04-14T13:15:36.869Z,20.48
2018-04-14T13:17:35.910Z,20.40
2018-04-14T13:18:34.965Z,20.46
2018-04-14T13:20:33.412Z,20.27
2018-04-14T13:21:32.934Z,20.22
2018-04-14T13:23:34.381Z,20.27
2018-04-14T13:24:34.873Z,20.34
2018-04-14T13:26:29.375Z,20.49
2018-04-14T13:27:30.267Z,20.51
2018-04-14T13:29:27.283Z,20.57
2018-04-14T13:30:27.807Z,20.57
2018-04-14T13:32:25.295Z,20.64
2018-04-14T13:33:25.241Z,20.68
2018-04-14T13:35:25.682Z,20.72
2018-04-14T13:36:25.708Z,20.64
2018-04-14T13:38:30.223Z,20.68
2018-04-14T13:39:29.684Z,20.86
2018-04-14T13:41:27.138Z,21.01
2018-04-14T13:42:26.641Z,20.97
2018-04-14T13:44:23.629Z,20.96
2018-04-14T13:45:24.138Z,21.03
2018-04-14T13:47:20.552Z,20.97
2018-04-14T13:48:20.054Z,20.97
2018-04-14T13:50:16.016Z,21.08
2018-04-14T13:51:15.517Z,21.15
2018-04-14T13:53:15.996Z,20.93
2018-04-14T13:54:15.977Z,20.78
2018-04-14T13:56:12.924Z,20.85
2018-04-14T13:57:12.433Z,20.98
2018-04-14T13:59:10.423Z,21.00
2018-04-14T14:00:10.393Z,20.96
2018-04-14T14:02:06.813Z,20.96
2018-04-14T14:03:05.833Z,20.94
2018-04-14T14:05:03.284Z,21.00
2018-04-14T14:06:01.794Z,21.12
2018-04-14T14:07:59.728Z,21.36
2018-04-14T14:09:00.237Z,21.34
2018-04-14T14:10:58.208Z,21.51
2018-04-14T14:11:59.695Z,21.49
2018-04-14T14:13:58.807Z,21.41
2018-04-14T14:14:56.857Z,21.37
2018-04-14T14:16:54.768Z,21.15
2018-04-14T14:17:54.266Z,20.98
2018-04-14T14:19:51.741Z,20.93
2018-04-14T14:20:52.715Z,20.85
2018-04-14T14:22:49.814Z,20.68
2018-04-14T14:23:49.795Z,20.68
2018-04-14T14:25:49.266Z,20.78
2018-04-14T14:26:47.766Z,20.96
2018-04-14T14:28:48.260Z,21.12
2018-04-14T14:29:48.203Z,21.00
2018-04-14T14:31:48.178Z,20.78
2018-04-14T14:32:47.166Z,20.64
2018-04-14T14:34:44.766Z,20.68
2018-04-14T14:35:44.230Z,20.66
2018-04-14T14:37:42.185Z,20.72
2018-04-14T14:38:42.692Z,20.78
2018-04-14T14:40:41.673Z,20.68
2018-04-14T14:41:40.166Z,20.58
2018-04-14T14:43:38.641Z,20.68
2018-04-14T14:44:38.120Z,20.66
2018-04-14T14:46:38.614Z,20.27
2018-04-14T14:47:39.596Z,20.35
2018-04-14T14:49:36.593Z,20.51
2018-04-14T14:50:36.550Z,20.60
2018-04-14T14:52:34.522Z,20.58
2018-04-14T14:53:34.506Z,20.68
2018-04-14T14:55:30.498Z,20.83
2018-04-14T14:56:30.489Z,20.71
2018-04-14T14:58:28.430Z,20.66
2018-04-14T14:59:28.943Z,20.68
2018-04-14T15:01:26.926Z,20.66
2018-04-14T15:02:28.436Z,20.68
2018-04-14T15:04:24.011Z,20.72
2018-04-14T15:05:22.524Z,20.67
2018-04-14T15:07:19.015Z,20.78
2018-04-14T15:08:19.480Z,20.79
2018-04-14T15:10:14.486Z,20.81
2018-04-14T15:11:14.449Z,20.94
2018-04-14T15:13:10.922Z,21.21
2018-04-14T15:14:10.415Z,21.28
2018-04-14T15:16:06.405Z,21.15
2018-04-14T15:17:06.387Z,21.16
2018-04-14T15:19:02.320Z,21.36
2018-04-14T15:20:02.317Z,21.19
2018-04-14T15:21:59.305Z,20.98
2018-04-14T15:22:59.297Z,20.81
2018-04-14T15:24:56.764Z,20.86
2018-04-14T15:25:57.252Z,20.91
2018-04-14T15:27:53.230Z,20.83
2018-04-14T15:28:52.226Z,20.96
2018-04-14T15:30:51.724Z,21.00
2018-04-14T15:31:52.195Z,20.93
2018-04-14T15:33:48.697Z,20.86
2018-04-14T15:34:48.206Z,20.85
2018-04-14T15:36:44.191Z,20.79
2018-04-14T15:37:44.184Z,20.76
2018-04-14T15:39:42.158Z,20.93
2018-04-14T15:40:42.175Z,20.78
2018-04-14T15:42:40.141Z,20.64
2018-04-14T15:43:41.108Z,20.61
2018-04-14T15:45:38.199Z,20.58
2018-04-14T15:46:39.079Z,20.58
2018-04-14T15:48:36.262Z,20.63
2018-04-14T15:49:36.279Z,20.64
2018-04-14T15:51:33.238Z,20.57
2018-04-14T15:52:33.255Z,20.46
2018-04-14T15:54:30.217Z,20.53
2018-04-14T15:55:30.709Z,20.58
2018-04-14T15:57:30.160Z,20.61
2018-04-14T15:58:29.161Z,20.58
2018-04-14T16:00:27.244Z,20.51
2018-04-14T16:01:27.179Z,20.48
2018-04-14T16:03:22.758Z,20.40
2018-04-14T16:04:22.295Z,20.35
2018-04-14T16:06:18.218Z,20.37
2018-04-14T16:07:19.224Z,20.26
2018-04-14T16:09:16.745Z,20.26
2018-04-14T16:10:17.213Z,20.27
2018-04-14T16:12:15.259Z,20.26
2018-04-14T16:13:14.379Z,20.23
2018-04-14T16:15:12.478Z,20.22
2018-04-14T16:16:13.346Z,20.23
2018-04-14T16:18:08.947Z,20.26
2018-04-14T16:19:09.435Z,20.23
2018-04-14T16:21:04.422Z,20.12
2018-04-14T16:22:04.419Z,20.11
2018-04-14T16:24:03.360Z,20.07
2018-04-14T16:25:02.494Z,19.97
2018-04-14T16:27:01.460Z,19.90
2018-04-14T16:28:00.458Z,19.87
2018-04-14T16:29:56.928Z,19.90
2018-04-14T16:30:57.419Z,19.87
2018-04-14T16:32:52.413Z,19.90
2018-04-14T16:33:52.400Z,19.78
2018-04-14T16:35:49.347Z,19.80
2018-04-14T16:36:48.853Z,19.78
2018-04-14T16:38:44.274Z,19.75
2018-04-14T16:39:44.352Z,19.75
2018-04-14T16:41:40.269Z,19.70
2018-04-14T16:42:40.227Z,19.75
2018-04-14T16:44:36.702Z,19.63
2018-04-14T16:45:36.185Z,19.65
2018-04-14T16:47:32.179Z,19.74
2018-04-14T16:48:32.646Z,19.70
2018-04-14T16:50:28.143Z,19.65
2018-04-14T16:51:28.136Z,19.63
2018-04-14T16:53:24.148Z,19.56
2018-04-14T16:54:25.156Z,19.52
2018-04-14T16:56:20.111Z,19.38
2018-04-14T16:57:20.106Z,19.40
2018-04-14T16:59:16.006Z,19.40
2018-04-14T17:00:16.573Z,19.30
2018-04-14T17:02:13.973Z,19.38
2018-04-14T17:03:13.968Z,19.38
2018-04-14T17:05:12.071Z,19.37
2018-04-14T17:06:12.072Z,19.38
2018-04-14T17:08:10.550Z,19.34
2018-04-14T17:09:11.030Z,19.24
2018-04-14T17:11:06.153Z,19.35
2018-04-14T17:12:06.134Z,19.28
2018-04-14T17:14:04.611Z,19.20
2018-04-14T17:15:04.225Z,19.24
2018-04-14T17:17:03.202Z,19.07
2018-04-14T17:18:02.337Z,19.13
2018-04-14T17:19:58.296Z,19.12
2018-04-14T17:20:58.306Z,19.13
2018-04-14T17:22:56.291Z,19.02
2018-04-14T17:23:57.193Z,19.12
2018-04-14T17:25:53.276Z,19.09
2018-04-14T17:26:52.247Z,19.02
2018-04-14T17:28:48.223Z,19.06
2018-04-14T17:29:48.192Z,19.02
2018-04-14T17:31:46.111Z,19.05
2018-04-14T17:32:46.127Z,19.05
2018-04-14T17:34:42.639Z,18.93
2018-04-14T17:35:42.590Z,18.90
2018-04-14T17:37:38.044Z,18.90
2018-04-14T17:38:39.041Z,18.86
2018-04-14T17:40:35.009Z,18.93
2018-04-14T17:41:35.005Z,18.86
2018-04-14T17:43:29.994Z,18.78
2018-04-14T17:44:29.992Z,18.79
2018-04-14T17:46:29.453Z,18.74
2018-04-14T17:47:28.084Z,18.79
2018-04-14T17:49:24.075Z,18.72
2018-04-14T17:50:24.017Z,18.78
2018-04-14T17:52:21.971Z,18.71
2018-04-14T17:53:21.968Z,18.75
2018-04-14T17:55:17.983Z,18.76
2018-04-14T17:57:36.458Z,18.65
2018-04-14T17:58:36.056Z,18.65
2018-04-14T18:00:33.008Z,18.49
2018-04-14T18:01:32.997Z,18.61
2018-04-14T18:03:31.093Z,18.50
2018-04-14T18:04:31.977Z,18.53
2018-04-14T18:06:27.074Z,18.41
2018-04-14T18:07:27.042Z,18.41
2018-04-14T18:09:24.498Z,18.36
2018-04-14T18:10:23.004Z,18.36
2018-04-14T18:12:18.899Z,18.24
2018-04-14T18:13:18.914Z,18.29
2018-04-14T18:15:14.904Z,18.21
2018-04-14T18:16:14.873Z,18.16
2018-04-14T18:18:13.348Z,18.20
2018-04-14T18:19:12.959Z,18.10
2018-04-14T18:21:11.419Z,18.17
2018-04-14T18:22:10.903Z,18.03
2018-04-14T18:24:06.874Z,17.99
2018-04-14T18:25:06.865Z,18.13
2018-04-14T18:27:04.935Z,18.05
2018-04-14T18:28:06.831Z,17.98
2018-04-14T18:30:00.938Z,17.94
2018-04-14T18:31:00.961Z,17.92
2018-04-14T18:32:57.886Z,17.87
2018-04-14T18:33:57.384Z,17.84
2018-04-14T18:35:52.872Z,17.73
2018-04-14T18:36:52.853Z,17.62
2018-04-14T18:38:48.764Z,17.63
2018-04-14T18:39:50.220Z,17.63
2018-04-14T18:41:44.711Z,17.54
2018-04-14T18:42:44.774Z,17.50
2018-04-14T18:44:40.697Z,17.47
2018-04-14T18:45:40.699Z,17.35
2018-04-14T18:47:39.771Z,17.38
2018-04-14T18:48:39.588Z,17.32
2018-04-14T18:50:34.657Z,17.35
2018-04-14T18:51:34.627Z,17.25
2018-04-14T18:53:31.576Z,17.35
2018-04-14T18:54:30.589Z,17.35
2018-04-14T18:56:31.042Z,17.36
2018-04-14T18:57:28.541Z,17.36
2018-04-14T18:59:27.515Z,17.32
2018-04-14T19:00:26.590Z,17.28
2018-04-14T19:02:23.102Z,17.27
2018-04-14T19:03:22.567Z,17.32
2018-04-14T19:05:22.024Z,17.22